createdAt,value
2023-02-08T00:00:16.391Z,12.20
2023-02-08T00:02:19.559Z,15.38
2023-02-08T00:04:24.032Z,14.48
2023-02-08T00:06:27.091Z,13.82
2023-02-08T00:08:30.158Z,15.10
2023-02-08T00:10:33.205Z,14.95
2023-02-08T00:12:36.224Z,13.55
2023-02-08T00:14:39.214Z,12.75
2023-02-08T00:16:42.264Z,13.85
2023-02-08T00:18:45.379Z,15.80
2023-02-08T00:20:49.765Z,15.90
2023-02-08T00:22:53.524Z,16.15
2023-02-08T00:24:56.679Z,14.60
2023-02-08T00:26:59.730Z,15.93
2023-02-08T00:29:03.065Z,14.95
2023-02-08T00:31:06.888Z,14.30
2023-02-08T00:33:11.002Z,18.85
2023-02-08T00:35:13.945Z,15.00
2023-02-08T00:37:18.499Z,18.02
2023-02-08T00:39:22.084Z,15.77
2023-02-08T00:41:25.216Z,18.70
2023-02-08T00:43:28.238Z,17.02
2023-02-08T00:45:31.655Z,16.63
2023-02-08T00:47:34.689Z,20.90
2023-02-08T00:49:37.772Z,16.38
2023-02-08T00:51:41.044Z,16.85
2023-02-08T00:53:46.721Z,16.83
2023-02-08T00:55:52.284Z,14.43
2023-02-08T00:57:55.270Z,15.85
2023-02-08T00:59:58.324Z,16.70
2023-02-08T01:02:01.665Z,15.90
2023-02-08T01:04:04.826Z,17.52
2023-02-08T01:06:09.400Z,16.95
2023-02-08T01:08:12.414Z,15.32
2023-02-08T01:10:16.765Z,16.80
2023-02-08T01:12:19.863Z,16.20
2023-02-08T01:14:23.147Z,17.80
2023-02-08T01:16:28.431Z,18.65
2023-02-08T01:18:31.445Z,19.20
2023-02-08T01:20:36.084Z,20.10
2023-02-08T01:22:39.620Z,17.83
2023-02-08T01:24:42.591Z,16.50
2023-02-08T01:26:47.029Z,20.00
2023-02-08T01:28:50.828Z,19.98
2023-02-08T01:30:53.990Z,17.52
2023-02-08T01:32:56.977Z,17.33
2023-02-08T01:34:59.913Z,18.58
2023-02-08T01:37:02.927Z,18.73
2023-02-08T01:39:07.128Z,20.00
2023-02-08T01:41:15.837Z,26.27
2023-02-08T01:43:24.643Z,18.90
2023-02-08T01:45:29.944Z,19.27
2023-02-08T01:47:33.018Z,17.48
2023-02-08T01:49:37.471Z,17.55
2023-02-08T01:51:42.761Z,18.73
2023-02-08T01:53:45.832Z,20.50
2023-02-08T01:55:53.258Z,16.45
2023-02-08T01:57:58.397Z,18.25
2023-02-08T02:00:04.983Z,20.33
2023-02-08T02:02:19.048Z,20.23
2023-02-08T02:04:23.697Z,18.40
2023-02-08T02:06:31.689Z,15.85
2023-02-08T02:08:34.945Z,20.77
2023-02-08T02:10:39.976Z,16.00
2023-02-08T02:12:44.102Z,18.13
2023-02-08T02:14:47.395Z,16.33
2023-02-08T02:16:51.787Z,16.40
2023-02-08T02:18:55.759Z,22.08
2023-02-08T02:21:11.432Z,18.25
2023-02-08T02:23:36.139Z,18.67
2023-02-08T02:26:02.484Z,17.10
2023-02-08T02:28:23.326Z,18.33
2023-02-08T02:30:37.231Z,17.50
2023-02-08T02:32:51.052Z,18.65
2023-02-08T02:34:58.329Z,16.45
2023-02-08T02:37:12.466Z,15.90
2023-02-08T02:39:21.975Z,17.48
2023-02-08T02:41:52.212Z,15.00
2023-02-08T02:43:58.912Z,17.85
2023-02-08T02:46:06.753Z,17.88
2023-02-08T02:48:13.916Z,17.30
2023-02-08T02:50:21.382Z,16.38
2023-02-08T02:52:28.307Z,17.92
2023-02-08T02:54:34.937Z,15.93
2023-02-08T02:56:41.032Z,17.75
2023-02-08T02:58:44.720Z,16.00
2023-02-08T03:00:53.615Z,17.15
2023-02-08T03:02:58.695Z,16.42
2023-02-08T03:05:03.152Z,16.40
2023-02-08T03:07:12.772Z,16.15
2023-02-08T03:09:30.557Z,17.10
2023-02-08T03:11:35.412Z,18.75
2023-02-08T03:13:48.838Z,17.00
2023-02-08T03:16:01.108Z,20.20
2023-02-08T03:18:07.416Z,14.85
2023-02-08T03:20:15.114Z,19.25
2023-02-08T03:22:21.897Z,14.80
2023-02-08T03:24:29.498Z,20.33
2023-02-08T03:26:36.196Z,16.55
2023-02-08T03:28:42.515Z,16.08
2023-02-08T03:30:54.581Z,17.45
2023-02-08T03:32:59.962Z,17.55
2023-02-08T03:35:06.395Z,19.63
2023-02-08T03:37:12.699Z,19.52
2023-02-08T03:39:19.280Z,18.08
2023-02-08T03:41:25.807Z,27.67
2023-02-08T03:43:31.397Z,20.08
2023-02-08T03:45:37.709Z,20.45
2023-02-08T03:47:42.161Z,16.55
2023-02-08T03:49:46.588Z,18.80
2023-02-08T03:51:50.399Z,18.63
2023-02-08T03:53:56.252Z,18.65
2023-02-08T03:56:01.536Z,18.75
2023-02-08T03:58:07.920Z,19.23
2023-02-08T04:00:14.432Z,17.95
2023-02-08T04:02:21.254Z,17.33
2023-02-08T04:04:24.470Z,20.02
2023-02-08T04:06:27.607Z,18.00
2023-02-08T04:08:31.307Z,16.63
2023-02-08T04:10:35.750Z,18.33
2023-02-08T04:12:38.711Z,19.35
2023-02-08T04:14:41.902Z,18.65
2023-02-08T04:16:44.857Z,18.88
2023-02-08T04:18:47.841Z,16.20
2023-02-08T04:20:50.822Z,15.40
2023-02-08T04:22:53.784Z,19.85
2023-02-08T04:24:56.796Z,18.42
2023-02-08T04:27:01.187Z,17.60
2023-02-08T04:29:04.299Z,17.23
2023-02-08T04:31:07.506Z,20.58
2023-02-08T04:33:12.588Z,22.67
2023-02-08T04:35:15.632Z,18.98
2023-02-08T04:37:18.728Z,19.60
2023-02-08T04:39:21.672Z,18.70
2023-02-08T04:41:24.928Z,16.83
2023-02-08T04:43:29.574Z,18.60
2023-02-08T04:45:32.981Z,18.27
2023-02-08T04:47:36.027Z,24.38
2023-02-08T04:49:39.068Z,19.70
2023-02-08T04:51:42.052Z,18.75
2023-02-08T04:53:45.060Z,19.10
2023-02-08T04:55:48.070Z,18.38
2023-02-08T04:57:51.119Z,20.83
2023-02-08T04:59:55.536Z,17.27
2023-02-08T05:01:58.511Z,18.55
2023-02-08T05:04:01.535Z,19.10
2023-02-08T05:06:04.755Z,18.25
2023-02-08T05:08:08.056Z,20.88
2023-02-08T05:10:11.303Z,20.05
2023-02-08T05:12:14.359Z,17.98
2023-02-08T05:14:17.377Z,18.23
2023-02-08T05:16:21.774Z,21.15
2023-02-08T05:18:24.885Z,20.13
2023-02-08T05:20:28.364Z,19.42
2023-02-08T05:22:31.331Z,25.05
2023-02-08T05:24:34.456Z,20.15
2023-02-08T05:26:37.520Z,23.70
2023-02-08T05:28:40.422Z,22.42
2023-02-08T05:30:43.615Z,19.45
2023-02-08T05:32:48.050Z,21.45
2023-02-08T05:34:51.103Z,19.48
2023-02-08T05:36:54.178Z,20.65
2023-02-08T05:38:57.237Z,19.80
2023-02-08T05:41:00.258Z,24.65
2023-02-08T05:43:03.303Z,19.45
2023-02-08T05:45:07.330Z,20.40
2023-02-08T05:47:10.408Z,23.63
2023-02-08T05:49:15.006Z,23.17
2023-02-08T05:51:17.982Z,23.60
2023-02-08T05:53:21.026Z,19.67
2023-02-08T05:55:24.030Z,21.52
2023-02-08T05:57:27.108Z,22.70
2023-02-08T05:59:30.283Z,23.20
2023-02-08T06:01:33.464Z,21.23
2023-02-08T06:03:36.704Z,20.33
2023-02-08T06:05:41.508Z,21.45
2023-02-08T06:07:44.552Z,19.75
2023-02-08T06:09:48.638Z,24.55
2023-02-08T06:11:51.720Z,22.45
2023-02-08T06:13:54.832Z,22.92
2023-02-08T06:15:57.900Z,23.20
2023-02-08T06:18:00.900Z,21.25
2023-02-08T06:20:03.880Z,23.33
2023-02-08T06:22:08.305Z,22.25
2023-02-08T06:24:11.489Z,21.65
2023-02-08T06:26:14.589Z,21.35
2023-02-08T06:28:17.679Z,21.33
2023-02-08T06:30:21.308Z,21.02
2023-02-08T06:32:24.379Z,20.15
2023-02-08T06:34:27.321Z,24.50
2023-02-08T06:36:30.556Z,23.20
2023-02-08T06:38:35.049Z,19.60
2023-02-08T06:40:38.245Z,21.23
2023-02-08T06:42:42.883Z,21.10
2023-02-08T06:44:54.725Z,19.00
2023-02-08T06:46:58.393Z,24.33
2023-02-08T06:49:01.424Z,26.48
2023-02-08T06:51:04.896Z,24.05
2023-02-08T06:53:07.974Z,22.73
2023-02-08T06:55:12.515Z,22.00
2023-02-08T06:57:15.730Z,23.23
2023-02-08T06:59:18.883Z,22.05
2023-02-08T07:01:21.930Z,22.23
2023-02-08T07:03:25.011Z,27.00
2023-02-08T07:05:28.071Z,23.30
2023-02-08T07:07:31.168Z,23.67
2023-02-08T07:09:34.496Z,20.05
2023-02-08T07:11:38.918Z,23.58
2023-02-08T07:13:42.012Z,21.23
2023-02-08T07:15:45.105Z,21.40
2023-02-08T07:17:48.817Z,21.45
2023-02-08T07:19:52.054Z,24.13
2023-02-08T07:21:55.294Z,23.67
2023-02-08T07:23:58.323Z,24.50
2023-02-08T07:26:02.821Z,21.23
2023-02-08T07:28:07.769Z,23.85
2023-02-08T07:30:11.831Z,22.20
2023-02-08T07:32:14.945Z,22.48
2023-02-08T07:34:21.814Z,18.92
2023-02-08T07:36:24.869Z,22.63
2023-02-08T07:38:28.311Z,20.95
2023-02-08T07:40:32.149Z,22.60
2023-02-08T07:42:35.265Z,24.08
2023-02-08T07:44:53.549Z,23.90
2023-02-08T07:46:56.487Z,24.38
2023-02-08T07:48:59.789Z,23.88
2023-02-08T07:51:03.301Z,21.55
2023-02-08T07:53:06.268Z,21.98
2023-02-08T07:55:09.937Z,24.70
2023-02-08T07:57:12.999Z,23.13
2023-02-08T07:59:16.354Z,23.48
2023-02-08T08:01:23.034Z,21.88
2023-02-08T08:03:26.330Z,22.35
2023-02-08T08:05:29.251Z,21.67
2023-02-08T08:07:32.272Z,23.58
2023-02-08T08:09:35.251Z,22.33
2023-02-08T08:11:38.270Z,22.33
2023-02-08T08:13:41.278Z,24.20
2023-02-08T08:15:44.336Z,21.73
2023-02-08T08:17:48.926Z,22.67
2023-02-08T08:19:51.933Z,24.20
2023-02-08T08:21:54.909Z,22.85
2023-02-08T08:23:57.973Z,22.80
2023-02-08T08:26:01.157Z,22.10
2023-02-08T08:28:04.260Z,22.45
2023-02-08T08:30:08.273Z,24.00
2023-02-08T08:32:11.949Z,22.42
2023-02-08T08:34:16.354Z,18.73
2023-02-08T08:36:19.402Z,23.75
2023-02-08T08:38:22.458Z,22.17
2023-02-08T08:40:25.529Z,23.40
2023-02-08T08:42:28.576Z,20.92
2023-02-08T08:44:31.926Z,20.42
2023-02-08T08:46:35.151Z,19.92
2023-02-08T08:48:38.920Z,22.25
2023-02-08T08:50:43.941Z,25.00
2023-02-08T08:52:46.956Z,23.70
2023-02-08T08:54:49.909Z,21.30
2023-02-08T08:56:52.909Z,30.10
2023-02-08T08:58:56.086Z,24.15
2023-02-08T09:01:00.307Z,20.92
2023-02-08T09:03:03.406Z,22.50
2023-02-08T09:05:08.095Z,25.08
2023-02-08T09:07:12.518Z,22.10
2023-02-08T09:09:15.617Z,23.10
2023-02-08T09:11:18.580Z,19.48
2023-02-08T09:13:22.136Z,22.58
2023-02-08T09:15:25.158Z,22.90
2023-02-08T09:17:28.267Z,20.52
2023-02-08T09:19:31.380Z,23.45
2023-02-08T09:21:35.269Z,20.00
2023-02-08T09:23:39.967Z,16.83
2023-02-08T09:25:43.265Z,22.23
2023-02-08T09:27:46.412Z,19.73
2023-02-08T09:29:49.452Z,18.83
2023-02-08T09:31:52.561Z,23.38
2023-02-08T09:33:57.887Z,18.67
2023-02-08T09:36:01.136Z,24.45
2023-02-08T09:38:05.384Z,21.80
2023-02-08T09:40:17.637Z,23.67
2023-02-08T09:42:30.518Z,20.08
2023-02-08T09:44:37.979Z,19.88
2023-02-08T09:46:42.551Z,18.95
2023-02-08T09:48:46.460Z,16.63
2023-02-08T09:50:51.940Z,20.02
2023-02-08T09:53:00.736Z,18.27
2023-02-08T09:55:10.290Z,18.98
2023-02-08T09:57:16.914Z,18.60
2023-02-08T09:59:24.128Z,17.92
2023-02-08T10:01:29.180Z,21.13
2023-02-08T10:03:37.897Z,21.63
2023-02-08T10:05:41.030Z,18.25
2023-02-08T10:07:44.373Z,19.83
2023-02-08T10:09:47.522Z,19.73
2023-02-08T10:11:58.194Z,15.98
2023-02-08T10:14:14.480Z,15.50
2023-02-08T10:16:27.192Z,19.10
2023-02-08T10:18:39.726Z,16.00
2023-02-08T10:20:51.784Z,17.10
2023-02-08T10:23:04.042Z,18.00
2023-02-08T10:25:41.097Z,18.55
2023-02-08T10:27:50.764Z,18.42
2023-02-08T10:30:14.703Z,17.67
2023-02-08T10:32:41.325Z,17.20
2023-02-08T10:34:47.775Z,15.38
2023-02-08T10:36:51.876Z,15.07
2023-02-08T10:38:57.047Z,14.32
2023-02-08T10:41:01.469Z,16.45
2023-02-08T10:43:13.985Z,18.40
2023-02-08T10:45:25.149Z,16.10
2023-02-08T10:47:43.791Z,13.20
2023-02-08T10:49:52.135Z,14.40
2023-02-08T10:51:55.229Z,14.10
2023-02-08T10:53:58.948Z,14.63
2023-02-08T10:56:02.303Z,17.73
2023-02-08T10:58:07.232Z,15.23
2023-02-08T11:00:16.579Z,15.70
2023-02-08T11:02:26.485Z,18.20
2023-02-08T11:04:29.771Z,13.98
2023-02-08T11:06:33.284Z,12.48
2023-02-08T11:08:55.521Z,12.65
2023-02-08T11:11:00.315Z,14.00
2023-02-08T11:13:08.314Z,13.02
2023-02-08T11:15:23.658Z,12.98
2023-02-08T11:17:30.938Z,11.10
2023-02-08T11:19:36.041Z,11.60
2023-02-08T11:21:41.266Z,15.30
2023-02-08T11:23:44.499Z,10.95
2023-02-08T11:25:48.028Z,12.85
2023-02-08T11:27:51.106Z,11.50
2023-02-08T11:30:18.173Z,10.80
2023-02-08T11:32:21.888Z,9.65
2023-02-08T11:34:29.071Z,9.63
2023-02-08T11:36:33.089Z,12.18
2023-02-08T11:38:37.697Z,11.07
2023-02-08T11:40:44.947Z,9.82
2023-02-08T11:42:48.139Z,9.70
2023-02-08T11:44:52.999Z,12.90
2023-02-08T11:46:57.420Z,10.30
2023-02-08T11:49:03.564Z,11.80
2023-02-08T11:51:08.698Z,10.73
2023-02-08T11:53:23.257Z,10.73
2023-02-08T11:55:29.367Z,12.30
2023-02-08T11:57:32.978Z,9.50
2023-02-08T11:59:36.158Z,9.30
2023-02-08T12:01:40.608Z,10.55
2023-02-08T12:03:43.872Z,12.23
2023-02-08T12:05:53.963Z,11.50
2023-02-08T12:08:06.811Z,13.25
2023-02-08T12:10:25.767Z,14.85
2023-02-08T12:12:35.865Z,10.15
2023-02-08T12:14:50.784Z,13.10
2023-02-08T12:17:24.563Z,8.20
2023-02-08T12:19:54.145Z,8.88
2023-02-08T12:22:00.467Z,8.73
2023-02-08T12:24:09.027Z,10.27
2023-02-08T12:26:18.088Z,9.45
2023-02-08T12:28:27.796Z,9.43
2023-02-08T12:30:35.354Z,9.98
2023-02-08T12:32:51.574Z,8.45
2023-02-08T12:35:04.997Z,9.45
2023-02-08T12:37:41.865Z,10.98
2023-02-08T12:40:11.703Z,9.10
2023-02-08T12:42:26.039Z,12.07
2023-02-08T12:44:34.805Z,13.57
2023-02-08T12:46:51.600Z,11.80
2023-02-08T12:49:26.156Z,11.48
2023-02-08T12:51:37.018Z,14.52
2023-02-08T12:53:44.851Z,11.27
2023-02-08T12:55:49.955Z,9.60
2023-02-08T12:57:54.853Z,7.60
2023-02-08T13:00:00.655Z,8.55
2023-02-08T13:02:07.903Z,8.65
2023-02-08T13:04:14.137Z,12.63
2023-02-08T13:06:19.672Z,9.27
2023-02-08T13:08:29.198Z,11.15
2023-02-08T13:10:35.850Z,9.80
2023-02-08T13:12:43.112Z,9.48
2023-02-08T13:14:49.660Z,9.60
2023-02-08T13:16:56.224Z,6.78
2023-02-08T13:19:23.157Z,6.70
2023-02-08T13:21:30.626Z,8.40
2023-02-08T13:23:50.511Z,9.23
2023-02-08T13:25:58.151Z,7.85
2023-02-08T13:28:03.434Z,6.78
2023-02-08T13:30:07.820Z,9.10
2023-02-08T13:32:17.495Z,8.70
2023-02-08T13:34:26.451Z,8.68
2023-02-08T13:36:31.785Z,9.68
2023-02-08T13:38:36.331Z,8.30
2023-02-08T13:40:39.744Z,11.00
2023-02-08T13:42:44.553Z,9.15
2023-02-08T13:44:53.482Z,10.02
2023-02-08T13:46:56.727Z,12.05
2023-02-08T13:49:00.891Z,10.52
2023-02-08T13:51:04.795Z,9.13
2023-02-08T13:53:08.192Z,12.05
2023-02-08T13:55:53.273Z,11.85
2023-02-08T13:57:58.001Z,8.98
2023-02-08T14:00:23.431Z,9.80
2023-02-08T14:02:28.624Z,8.98
2023-02-08T14:04:35.113Z,11.00
2023-02-08T14:06:38.941Z,10.75
2023-02-08T14:08:47.516Z,11.02
2023-02-08T14:11:02.438Z,10.85
2023-02-08T14:13:09.198Z,11.85
2023-02-08T14:15:31.531Z,11.50
2023-02-08T14:17:35.425Z,10.15
2023-02-08T14:19:40.065Z,10.82
2023-02-08T14:21:46.049Z,9.93
2023-02-08T14:24:00.616Z,10.52
2023-02-08T14:26:09.800Z,10.18
2023-02-08T14:28:27.621Z,11.50
2023-02-08T14:30:33.711Z,11.02
2023-02-08T14:32:38.931Z,11.93
2023-02-08T14:34:42.026Z,12.65
2023-02-08T14:36:45.174Z,10.18
2023-02-08T14:38:53.790Z,10.73
2023-02-08T14:40:58.465Z,13.50
2023-02-08T14:43:02.915Z,11.45
2023-02-08T14:45:06.810Z,11.57
2023-02-08T14:47:14.713Z,10.40
2023-02-08T14:49:19.232Z,12.15
2023-02-08T14:51:25.518Z,12.27
2023-02-08T14:53:44.837Z,12.07
2023-02-08T14:55:51.012Z,13.13
2023-02-08T14:57:55.205Z,13.52
2023-02-08T15:00:00.865Z,14.75
2023-02-08T15:02:05.646Z,12.98
2023-02-08T15:04:10.576Z,14.00
2023-02-08T15:07:00.243Z,13.27
2023-02-08T15:09:05.848Z,14.18
2023-02-08T15:11:21.368Z,14.15
2023-02-08T15:13:25.326Z,12.10
2023-02-08T15:15:31.246Z,11.93
2023-02-08T15:17:36.278Z,14.60
2023-02-08T15:19:40.727Z,15.35
2023-02-08T15:21:43.827Z,16.08
2023-02-08T15:23:59.584Z,13.70
2023-02-08T15:26:04.672Z,14.98
2023-02-08T15:28:19.964Z,13.43
2023-02-08T15:30:28.216Z,16.65
2023-02-08T15:32:31.618Z,13.63
2023-02-08T15:34:34.630Z,15.38
2023-02-08T15:36:40.827Z,17.85
2023-02-08T15:38:44.886Z,17.02
2023-02-08T15:41:01.771Z,15.98
2023-02-08T15:43:12.208Z,14.20
2023-02-08T15:45:24.501Z,13.88
2023-02-08T15:47:30.004Z,12.88
2023-02-08T15:49:35.084Z,14.20
2023-02-08T15:51:39.697Z,13.10
2023-02-08T15:53:45.006Z,12.38
2023-02-08T15:55:50.596Z,14.63
2023-02-08T15:57:57.990Z,13.52
2023-02-08T16:00:01.299Z,13.38
2023-02-08T16:02:19.623Z,12.48
2023-02-08T16:04:22.835Z,12.60
2023-02-08T16:06:27.335Z,15.45
2023-02-08T16:08:33.404Z,13.40
2023-02-08T16:10:40.761Z,13.68
2023-02-08T16:12:44.765Z,14.85
2023-02-08T16:14:52.716Z,15.32
2023-02-08T16:16:57.806Z,12.70
2023-02-08T16:19:02.776Z,14.25
2023-02-08T16:21:08.194Z,13.27
2023-02-08T16:23:24.571Z,14.70
2023-02-08T16:25:38.398Z,14.52
2023-02-08T16:27:48.682Z,14.32
2023-02-08T16:29:51.768Z,13.88
2023-02-08T16:32:00.980Z,14.52
2023-02-08T16:34:06.428Z,16.15
2023-02-08T16:36:22.973Z,13.38
2023-02-08T16:38:26.117Z,13.63
2023-02-08T16:40:48.907Z,14.45
2023-02-08T16:42:52.032Z,14.05
2023-02-08T16:45:24.244Z,16.45
2023-02-08T16:47:30.102Z,16.02
2023-02-08T16:49:33.066Z,15.32
2023-02-08T16:51:39.347Z,17.13
2023-02-08T16:53:42.973Z,19.25
2023-02-08T16:55:47.329Z,21.90
2023-02-08T16:57:51.482Z,34.47
2023-02-08T16:59:56.641Z,37.45
2023-02-08T17:01:59.903Z,23.05
2023-02-08T17:04:02.986Z,18.30
2023-02-08T17:06:06.532Z,27.17
2023-02-08T17:08:13.493Z,25.20
2023-02-08T17:10:23.544Z,20.63
2023-02-08T17:12:28.026Z,23.58
2023-02-08T17:14:31.104Z,22.58
2023-02-08T17:16:35.970Z,20.83
2023-02-08T17:18:39.499Z,20.73
2023-02-08T17:20:42.752Z,18.42
2023-02-08T17:22:46.204Z,19.95
2023-02-08T17:24:49.340Z,20.83
2023-02-08T17:26:52.476Z,22.13
2023-02-08T17:28:57.731Z,18.63
2023-02-08T17:31:01.726Z,18.23
2023-02-08T17:33:06.647Z,18.00
2023-02-08T17:35:10.676Z,23.02
2023-02-08T17:37:13.748Z,31.50
2023-02-08T17:39:17.763Z,23.60
2023-02-08T17:41:21.724Z,24.85
2023-02-08T17:43:25.463Z,21.95
2023-02-08T17:45:30.514Z,19.05
2023-02-08T17:47:33.596Z,21.08
2023-02-08T17:49:36.682Z,20.58
2023-02-08T17:51:39.735Z,18.58
2023-02-08T17:53:44.323Z,20.65
2023-02-08T17:55:47.984Z,23.70
2023-02-08T17:57:51.086Z,23.45
2023-02-08T17:59:54.232Z,21.17
2023-02-08T18:01:58.773Z,19.17
2023-02-08T18:04:02.004Z,24.58
2023-02-08T18:06:06.102Z,20.85
2023-02-08T18:08:09.342Z,23.77
2023-02-08T18:10:13.664Z,20.00
2023-02-08T18:12:16.858Z,21.23
2023-02-08T18:14:20.572Z,19.17
2023-02-08T18:16:25.695Z,24.13
2023-02-08T18:18:30.168Z,20.52
2023-02-08T18:20:33.187Z,21.15
2023-02-08T18:22:37.010Z,18.02
2023-02-08T18:24:40.064Z,18.00
2023-02-08T18:26:43.205Z,20.48
2023-02-08T18:28:46.770Z,18.35
2023-02-08T18:30:49.876Z,20.17
2023-02-08T18:32:52.913Z,19.17
2023-02-08T18:34:58.538Z,22.20
2023-02-08T18:37:01.879Z,20.00
2023-02-08T18:39:05.422Z,18.40
2023-02-08T18:41:09.337Z,14.80
2023-02-08T18:43:13.056Z,20.67
2023-02-08T18:45:16.240Z,20.90
2023-02-08T18:47:19.344Z,17.42
2023-02-08T18:49:22.500Z,20.33
2023-02-08T18:51:28.421Z,17.95
2023-02-08T18:53:33.036Z,17.00
2023-02-08T18:55:36.131Z,21.00
2023-02-08T18:57:40.165Z,17.73
2023-02-08T18:59:43.629Z,20.35
2023-02-08T19:01:47.076Z,18.23
2023-02-08T19:03:51.797Z,17.48
2023-02-08T19:05:54.880Z,19.58
2023-02-08T19:07:59.320Z,21.90
2023-02-08T19:10:02.547Z,18.67
2023-02-08T19:12:05.869Z,22.13
2023-02-08T19:14:11.610Z,17.85
2023-02-08T19:16:15.491Z,23.45
2023-02-08T19:18:18.686Z,33.22
2023-02-08T19:20:22.184Z,25.05
2023-02-08T19:22:25.564Z,21.10
2023-02-08T19:24:30.053Z,17.67
2023-02-08T19:26:36.587Z,20.10
2023-02-08T19:28:40.391Z,20.88
2023-02-08T19:30:43.471Z,16.98
2023-02-08T19:32:46.686Z,20.58
2023-02-08T19:34:49.809Z,22.17
2023-02-08T19:36:54.707Z,20.50
2023-02-08T19:38:58.442Z,19.73
2023-02-08T19:41:02.984Z,17.50
2023-02-08T19:43:06.090Z,22.05
2023-02-08T19:45:10.391Z,28.10
2023-02-08T19:47:13.567Z,23.27
2023-02-08T19:49:16.621Z,22.30
2023-02-08T19:51:20.146Z,21.67
2023-02-08T19:53:23.410Z,26.60
2023-02-08T19:55:26.590Z,22.88
2023-02-08T19:57:31.235Z,19.92
2023-02-08T19:59:35.436Z,22.33
2023-02-08T20:01:38.667Z,22.67
2023-02-08T20:03:41.862Z,22.88
2023-02-08T20:05:45.448Z,19.88
2023-02-08T20:07:48.608Z,19.85
2023-02-08T20:09:51.706Z,20.35
2023-02-08T20:11:57.342Z,23.45
2023-02-08T20:14:02.582Z,25.10
2023-02-08T20:16:06.346Z,19.50
2023-02-08T20:18:10.922Z,20.23
2023-02-08T20:20:14.103Z,20.00
2023-02-08T20:22:17.295Z,19.92
2023-02-08T20:24:20.471Z,22.13
2023-02-08T20:26:25.005Z,26.17
2023-02-08T20:28:28.784Z,37.78
2023-02-08T20:30:33.312Z,29.73
2023-02-08T20:32:36.376Z,41.80
2023-02-08T20:34:47.425Z,29.58
2023-02-08T20:37:06.275Z,23.00
2023-02-08T20:39:11.847Z,21.05
2023-02-08T20:41:15.837Z,21.63
2023-02-08T20:43:18.978Z,20.77
2023-02-08T20:45:22.195Z,21.08
2023-02-08T20:47:27.459Z,21.33
2023-02-08T20:49:32.364Z,23.08
2023-02-08T20:51:35.893Z,30.83
2023-02-08T20:53:40.517Z,30.35
2023-02-08T20:55:44.034Z,25.70
2023-02-08T20:57:47.285Z,34.78
2023-02-08T20:59:51.676Z,32.20
2023-02-08T21:01:54.825Z,38.20
2023-02-08T21:03:59.792Z,36.53
2023-02-08T21:06:02.938Z,31.75
2023-02-08T21:08:06.413Z,23.20
2023-02-08T21:10:09.853Z,27.90
2023-02-08T21:12:12.964Z,26.50
2023-02-08T21:14:19.120Z,26.55
2023-02-08T21:16:22.708Z,21.45
2023-02-08T21:18:25.941Z,25.35
2023-02-08T21:20:30.479Z,33.88
2023-02-08T21:22:33.626Z,30.85
2023-02-08T21:24:36.740Z,34.53
2023-02-08T21:26:39.944Z,26.45
2023-02-08T21:28:43.807Z,25.05
2023-02-08T21:30:47.443Z,26.40
2023-02-08T21:32:50.969Z,21.35
2023-02-08T21:34:54.332Z,20.52
2023-02-08T21:36:59.607Z,21.00
2023-02-08T21:39:02.675Z,22.75
2023-02-08T21:41:08.111Z,32.05
2023-02-08T21:43:11.314Z,25.67
2023-02-08T21:45:14.591Z,24.95
2023-02-08T21:47:17.937Z,26.92
2023-02-08T21:49:38.351Z,20.77
2023-02-08T21:51:59.198Z,22.65
2023-02-08T21:54:21.092Z,20.95
2023-02-08T21:56:24.241Z,21.13
2023-02-08T21:58:27.438Z,17.73
2023-02-08T22:00:30.807Z,20.85
2023-02-08T22:02:34.034Z,20.63
2023-02-08T22:04:38.181Z,23.70
2023-02-08T22:06:49.927Z,34.42
2023-02-08T22:08:53.150Z,30.58
2023-02-08T22:11:04.562Z,49.72
2023-02-08T22:13:08.190Z,40.10
2023-02-08T22:15:12.271Z,25.70
2023-02-08T22:17:16.110Z,25.17
2023-02-08T22:19:19.333Z,25.60
2023-02-08T22:21:22.534Z,33.85
2023-02-08T22:23:25.675Z,27.85
2023-02-08T22:25:29.105Z,31.85
2023-02-08T22:27:33.646Z,24.23
2023-02-08T22:29:36.998Z,21.65
2023-02-08T22:31:40.245Z,28.20
2023-02-08T22:33:43.911Z,19.73
2023-02-08T22:35:46.973Z,22.63
2023-02-08T22:37:50.312Z,26.88
2023-02-08T22:39:53.601Z,31.50
2023-02-08T22:41:56.808Z,39.17
2023-02-08T22:44:01.354Z,31.42
2023-02-08T22:46:04.719Z,32.00
2023-02-08T22:48:07.905Z,35.08
2023-02-08T22:50:11.351Z,29.40
2023-02-08T22:52:14.700Z,30.08
2023-02-08T22:54:17.754Z,19.38
2023-02-08T22:56:20.930Z,25.88
2023-02-08T22:58:24.655Z,29.42
2023-02-08T23:00:29.120Z,49.97
2023-02-08T23:02:32.319Z,43.00
2023-02-08T23:04:35.609Z,39.45
2023-02-08T23:06:41.397Z,39.97
2023-02-08T23:08:44.643Z,32.95
2023-02-08T23:10:47.728Z,32.83
2023-02-08T23:12:50.855Z,25.05
2023-02-08T23:14:53.991Z,35.78
2023-02-08T23:16:58.451Z,34.03
2023-02-08T23:19:01.572Z,33.47
2023-02-08T23:21:07.337Z,36.42
2023-02-08T23:23:10.522Z,23.77
2023-02-08T23:25:13.621Z,22.77
2023-02-08T23:27:16.780Z,29.60
2023-02-08T23:29:19.866Z,22.92
2023-02-08T23:31:23.324Z,23.17
2023-02-08T23:33:27.961Z,19.73
2023-02-08T23:35:31.117Z,20.77
2023-02-08T23:37:34.200Z,16.92
2023-02-08T23:39:37.269Z,16.77
2023-02-08T23:41:40.360Z,16.48
2023-02-08T23:43:43.812Z,17.65
2023-02-08T23:45:46.902Z,19.45
2023-02-08T23:47:49.974Z,18.20
2023-02-08T23:49:54.367Z,18.73
2023-02-08T23:51:57.495Z,20.60
2023-02-08T23:54:00.514Z,16.85
2023-02-08T23:56:06.636Z,17.85
2023-02-08T23:58:09.729Z,17.40
